Goodway, Alabama
Current Conditions -  °F | °C
As of 5:53 AM on Monday 26 Jan 2015 (Local Time) from KGZH Reporting Station
Overcast Overcast  
Wind Chill: 43°   Ceiling: 3800
Heat Index: 47°   Visibility: 10mi
Dew Point: 38°   Wind: 8mph
Humidity: 71%   Direction: 340°NNW
Pressure: 29.94"   Gusts: NA
Location:  31.34°N, 87.43°W
Report Text: KGZH 261153Z AUTO 34007KT 10SM OVC038 08/03 A2994 RMK AO2 SLP137 T00830033 10100 20050 53009
Loading
Personal Weather Stations






























Interactive Weather Map New forecast layout! Learn more

10-Day Weather Forecast

Advertisements
Track Severe Weather on mobile